Time;durP1;ratioP1;P1;durP2;ratioP2;P2;SDS_P1;SDS_P2;PMS_P1;PMS_P2;Temp;Humidity;BMP_temperature;BMP_pressure;BME280_temperature;BME280_humidity;BME280_pressure;Samples;Min_cycle;Max_cycle;Signal;HPM_P1;HPM_P2
2023/01/30 02:06:29;;;;;;;8.60;4.50;;;;;;;-3.23;100.00;99430.67;104892;1301;545368;-66
2023/01/30 02:09:05;;;;;;;8.70;4.00;;;;;;;-3.08;100.00;99429.73;106442;1288;23321;-66
2023/01/30 02:11:40;;;;;;;7.10;4.00;;;;;;;-2.88;100.00;99428.60;106635;1288;26224;-66
2023/01/30 02:14:10;;;;;;;6.60;3.80;;;;;;;-2.73;100.00;99423.86;106579;1288;22587;-66
2023/01/30 02:16:38;;;;;;;5.70;3.60;;;;;;;-2.65;100.00;99419.63;106503;1290;24315;-66
2023/01/30 02:19:23;;;;;;;7.60;4.60;;;;;;;-2.58;100.00;99420.50;106626;1286;204500;-66
2023/01/30 02:22:07;;;;;;;6.30;4.20;;;;;;;-2.49;100.00;99418.47;106876;1286;25819;-66
2023/01/30 02:24:51;;;;;;;5.40;3.40;;;;;;;-2.34;100.00;99408.36;106926;1279;26184;-66
2023/01/30 02:27:39;;;;;;;7.30;4.50;;;;;;;-2.25;100.00;99398.38;106763;1279;23532;-66
2023/01/30 02:30:42;;;;;;;7.80;4.40;;;;;;;-2.21;100.00;99394.59;106966;1284;25736;-66
2023/01/30 02:33:15;;;;;;;6.70;4.40;;;;;;;-2.18;100.00;99397.30;109273;1285;22382;-66
2023/01/30 02:36:04;;;;;;;7.50;4.30;;;;;;;-2.13;100.00;99394.05;109494;1285;22566;-66
2023/01/30 02:38:42;;;;;;;7.20;4.40;;;;;;;-2.01;100.00;99394.52;109699;1282;23199;-67
2023/01/30 02:41:24;;;;;;;5.90;3.80;;;;;;;-1.97;100.00;99389.66;109450;1279;22208;-66
2023/01/30 02:44:09;;;;;;;7.20;4.30;;;;;;;-1.95;100.00;99390.13;109541;1273;22282;-67
2023/01/30 02:46:43;;;;;;;8.20;4.50;;;;;;;-1.93;100.00;99388.09;109692;1286;22215;-68
2023/01/30 02:49:36;;;;;;;7.40;4.90;;;;;;;-1.92;100.00;99378.36;109024;1286;25502;-66
2023/01/30 02:52:30;;;;;;;8.00;4.30;;;;;;;-1.84;100.00;99373.88;106721;1285;23206;-68
2023/01/30 02:55:25;;;;;;;6.30;4.40;;;;;;;-1.76;100.00;99374.47;107237;1278;22567;-66
2023/01/30 02:57:54;;;;;;;8.60;4.70;;;;;;;-1.79;100.00;99371.10;107337;1278;23262;-66
2023/01/30 03:01:04;;;;;;;7.00;4.50;;;;;;;-1.81;100.00;99371.88;107262;1275;22934;-66
2023/01/30 03:03:49;;;;;;;7.40;4.70;;;;;;;-1.87;100.00;99362.00;107257;1278;25338;-66
2023/01/30 03:06:38;;;;;;;7.10;4.70;;;;;;;-1.88;100.00;99358.96;109952;1278;22429;-67
2023/01/30 03:09:07;;;;;;;7.70;4.90;;;;;;;-1.81;100.00;99362.31;109867;1278;22313;-67
2023/01/30 03:11:43;;;;;;;8.80;5.50;;;;;;;-1.81;100.00;99359.69;110105;1278;23097;-65
2023/01/30 03:14:15;;;;;;;9.00;5.50;;;;;;;-1.84;100.00;99362.95;109879;1272;22415;-66
2023/01/30 03:16:43;;;;;;;9.00;6.00;;;;;;;-1.87;100.00;99354.70;109991;1278;22419;-66
2023/01/30 03:19:12;;;;;;;9.20;6.40;;;;;;;-1.82;100.00;99352.09;110122;1278;22251;-67
2023/01/30 03:21:44;;;;;;;8.20;5.60;;;;;;;-1.79;100.00;99348.81;110000;1278;22285;-67
2023/01/30 03:24:12;;;;;;;9.60;6.50;;;;;;;-1.80;100.00;99346.46;109935;1278;22289;-67
2023/01/30 03:27:08;;;;;;;10.20;7.00;;;;;;;-1.82;100.00;99347.05;110107;1278;22448;-67
2023/01/30 03:29:37;;;;;;;12.30;7.10;;;;;;;-1.82;100.00;99344.45;109919;1278;22300;-67
2023/01/30 03:32:06;;;;;;;11.90;6.90;;;;;;;-1.75;100.00;99340.85;109899;1278;22269;-67
2023/01/30 03:34:34;;;;;;;9.80;6.50;;;;;;;-1.70;100.00;99343.90;109995;1279;22275;-67
2023/01/30 03:37:05;;;;;;;10.30;7.10;;;;;;;-1.71;100.00;99339.06;110023;1279;23707;-66
2023/01/30 03:39:36;;;;;;;11.50;7.50;;;;;;;-1.73;100.00;99337.56;109965;1279;22922;-67
2023/01/30 03:42:05;;;;;;;11.90;7.70;;;;;;;-1.75;100.00;99337.82;110013;1279;22265;-67
2023/01/30 03:44:33;;;;;;;10.60;7.90;;;;;;;-1.70;100.00;99334.08;109953;1278;22275;-66
2023/01/30 03:47:02;;;;;;;12.00;8.10;;;;;;;-1.64;100.00;99334.23;110236;1278;22197;-67
2023/01/30 03:49:30;;;;;;;14.40;8.00;;;;;;;-1.66;100.00;99331.79;109936;1276;22282;-67
2023/01/30 03:51:58;;;;;;;13.10;9.40;;;;;;;-1.67;100.00;99331.18;110305;1274;22209;-67
2023/01/30 03:54:26;;;;;;;15.10;8.70;;;;;;;-1.70;100.00;99331.30;110200;1276;22292;-67
2023/01/30 03:56:55;;;;;;;13.90;9.10;;;;;;;-1.69;100.00;99327.52;110279;1274;22264;-67
2023/01/30 03:59:26;;;;;;;15.80;10.20;;;;;;;-1.63;100.00;99323.46;110364;1274;22365;-67
2023/01/30 04:02:01;;;;;;;12.20;9.60;;;;;;;-1.64;100.00;99319.04;110350;1270;22269;-67
2023/01/30 04:04:31;;;;;;;14.00;9.00;;;;;;;-1.67;100.00;99312.34;110299;1276;22228;-67
2023/01/30 04:06:59;;;;;;;13.50;9.50;;;;;;;-1.70;100.00;99310.70;110271;1275;23654;-67
2023/01/30 04:09:29;;;;;;;14.40;9.70;;;;;;;-1.66;100.00;99311.02;110274;1275;22254;-67
2023/01/30 04:11:57;;;;;;;15.00;10.10;;;;;;;-1.64;100.00;99310.77;110462;1275;22249;-67
2023/01/30 04:14:27;;;;;;;14.60;10.30;;;;;;;-1.67;100.00;99312.54;110309;1275;22976;-67
2023/01/30 04:17:25;;;;;;;14.10;9.90;;;;;;;-1.69;100.00;99314.09;110293;1275;22467;-67
2023/01/30 04:20:16;;;;;;;14.60;9.70;;;;;;;-1.64;100.00;99314.55;110381;1275;22460;-67
2023/01/30 04:22:49;;;;;;;16.00;9.50;;;;;;;-1.60;100.00;99314.56;110227;1271;22418;-67
2023/01/30 04:25:19;;;;;;;15.80;10.00;;;;;;;-1.62;100.00;99317.02;110294;1276;22327;-68
2023/01/30 04:27:48;;;;;;;15.80;9.90;;;;;;;-1.61;100.00;99311.77;110259;1274;22358;-67
2023/01/30 04:30:23;;;;;;;14.00;9.60;;;;;;;-1.60;100.00;99308.19;110276;1275;22274;-68
2023/01/30 04:32:59;;;;;;;13.50;9.50;;;;;;;-1.53;100.00;99298.34;109021;1275;25458;-67
2023/01/30 04:35:27;;;;;;;20.00;12.10;;;;;;;-1.53;100.00;99292.92;107414;1274;23668;-66
2023/01/30 04:37:55;;;;;;;15.70;11.40;;;;;;;-1.56;100.00;99293.62;107558;1275;23297;-66
2023/01/30 04:40:26;;;;;;;15.70;10.80;;;;;;;-1.61;100.00;99296.41;107643;1275;26292;-67
2023/01/30 04:42:55;;;;;;;15.50;10.10;;;;;;;-1.58;100.00;99297.11;107445;1275;24215;-67
2023/01/30 04:45:35;;;;;;;12.80;8.60;;;;;;;-1.56;100.00;99289.79;107459;1275;25597;-67
2023/01/30 04:48:04;;;;;;;14.70;10.00;;;;;;;-1.61;100.00;99290.48;107401;1275;22571;-66
2023/01/30 04:50:33;;;;;;;14.80;9.30;;;;;;;-1.66;100.00;99292.82;107440;1275;23205;-66
2023/01/30 04:53:01;;;;;;;16.10;10.40;;;;;;;-1.68;100.00;99285.31;107387;1275;24262;-66
2023/01/30 04:55:29;;;;;;;14.40;10.20;;;;;;;-1.67;100.00;99280.66;107340;1271;22531;-66
2023/01/30 04:57:58;;;;;;;13.90;9.80;;;;;;;-1.65;100.00;99269.67;107495;1275;22542;-66
2023/01/30 05:00:26;;;;;;;15.40;10.00;;;;;;;-1.63;100.00;99273.38;107645;1275;22546;-66
2023/01/30 05:02:59;;;;;;;15.60;10.30;;;;;;;-1.64;100.00;99267.79;107745;1275;23738;-66
2023/01/30 05:05:28;;;;;;;13.60;9.60;;;;;;;-1.63;100.00;99261.14;109137;1274;22226;-67
2023/01/30 05:07:56;;;;;;;13.20;9.00;;;;;;;-1.58;100.00;99256.17;110427;1272;22493;-67
2023/01/30 05:10:24;;;;;;;11.20;8.30;;;;;;;-1.50;100.00;99255.47;110428;1274;22837;-66
2023/01/30 05:12:53;;;;;;;11.50;8.40;;;;;;;-1.51;100.00;99257.27;110398;1274;22431;-67
2023/01/30 05:15:21;;;;;;;12.90;9.40;;;;;;;-1.52;100.00;99258.86;109351;1272;22562;-66
2023/01/30 05:17:50;;;;;;;12.10;8.30;;;;;;;-1.51;100.00;99254.89;107680;1270;27275;-66
2023/01/30 05:20:19;;;;;;;12.10;8.70;;;;;;;-1.46;100.00;99253.50;107735;1274;25388;-66
2023/01/30 05:22:50;;;;;;;10.80;8.10;;;;;;;-1.42;100.00;99246.64;107618;1275;22612;-66
2023/01/30 05:25:18;;;;;;;12.70;8.60;;;;;;;-1.46;100.00;99247.88;107553;1275;25346;-66
2023/01/30 05:27:47;;;;;;;12.00;8.00;;;;;;;-1.50;100.00;99243.89;107625;1274;23025;-67
2023/01/30 05:30:17;;;;;;;11.20;7.30;;;;;;;-1.47;100.00;99238.33;107644;1268;22590;-66
2023/01/30 05:32:45;;;;;;;10.90;7.60;;;;;;;-1.42;100.00;99239.02;107663;1273;25498;-67
2023/01/30 05:35:14;;;;;;;11.70;8.00;;;;;;;-1.44;100.00;99238.63;108386;1274;25460;-66
2023/01/30 05:37:49;;;;;;;12.50;8.30;;;;;;;-1.49;100.00;99229.66;107728;1274;26576;-66
2023/01/30 05:40:18;;;;;;;11.50;7.00;;;;;;;-1.53;100.00;99226.92;107613;1274;22536;-67
2023/01/30 05:42:46;;;;;;;11.70;8.10;;;;;;;-1.51;100.00;99231.16;107485;1274;25281;-67
2023/01/30 05:45:15;;;;;;;11.30;7.80;;;;;;;-1.47;100.00;99233.23;107769;1274;25331;-66
2023/01/30 05:47:50;;;;;;;11.90;8.30;;;;;;;-1.48;100.00;99229.55;107868;1271;22850;-67
2023/01/30 05:50:18;;;;;;;12.20;8.40;;;;;;;-1.51;100.00;99226.19;107510;1268;22554;-66
2023/01/30 05:52:47;;;;;;;11.70;8.10;;;;;;;-1.54;100.00;99218.38;107690;1274;24215;-67
2023/01/30 05:55:15;;;;;;;12.20;8.50;;;;;;;-1.51;100.00;99211.13;107662;1274;23342;-66
2023/01/30 05:57:44;;;;;;;11.00;7.30;;;;;;;-1.46;100.00;99211.02;107585;1275;25357;-66
2023/01/30 06:00:13;;;;;;;12.30;8.30;;;;;;;-1.49;100.00;99209.54;107743;1269;25385;-66
2023/01/30 06:02:41;;;;;;;11.30;7.60;;;;;;;-1.52;100.00;99209.92;110456;1274;22233;-67
2023/01/30 06:05:10;;;;;;;13.10;8.70;;;;;;;-1.54;100.00;99203.77;110235;1253;23027;-67
2023/01/30 06:07:39;;;;;;;11.60;7.70;;;;;;;-1.47;100.00;99203.69;110407;1271;22451;-67
2023/01/30 06:10:08;;;;;;;10.50;7.20;;;;;;;-1.42;100.00;99202.44;110395;1275;22272;-67
2023/01/30 06:12:36;;;;;;;10.90;7.80;;;;;;;-1.43;100.00;99201.65;110406;1274;22377;-67
2023/01/30 06:15:05;;;;;;;10.50;7.20;;;;;;;-1.46;100.00;99205.08;110437;1274;22254;-67
2023/01/30 06:17:41;;;;;;;12.70;7.40;;;;;;;-1.44;100.00;99199.33;110415;1275;23036;-67
2023/01/30 06:20:11;;;;;;;10.90;7.70;;;;;;;-1.37;100.00;99204.08;110310;1267;22383;-69
2023/01/30 06:22:40;;;;;;;10.60;7.30;;;;;;;-1.37;100.00;99206.53;110424;1274;22335;-67
2023/01/30 06:25:09;;;;;;;13.90;7.90;;;;;;;-1.38;100.00;99204.16;110407;1274;22752;-67
2023/01/30 06:27:38;;;;;;;11.00;7.30;;;;;;;-1.35;100.00;99206.90;110460;1274;22368;-67
2023/01/30 06:30:09;;;;;;;10.70;7.70;;;;;;;-1.29;100.00;99206.85;110383;1268;22619;-67
2023/01/30 06:32:37;;;;;;;10.50;7.30;;;;;;;-1.31;100.00;99201.34;110376;1274;22275;-68
2023/01/30 06:35:06;;;;;;;12.90;7.50;;;;;;;-1.33;100.00;99203.58;110410;1274;22286;-67
2023/01/30 06:37:35;;;;;;;12.30;8.10;;;;;;;-1.35;100.00;99196.06;110257;1275;22690;-66
2023/01/30 06:40:03;;;;;;;11.70;7.50;;;;;;;-1.30;100.00;99192.36;110393;1274;22437;-67
2023/01/30 06:42:32;;;;;;;11.60;8.10;;;;;;;-1.24;100.00;99190.36;110375;1274;22339;-67
2023/01/30 06:45:00;;;;;;;14.80;9.40;;;;;;;-1.25;100.00;99190.98;110326;1267;22500;-66
2023/01/30 06:47:29;;;;;;;22.20;13.10;;;;;;;-1.28;100.00;99186.97;110332;1272;22333;-70
2023/01/30 06:49:57;;;;;;;37.80;21.60;;;;;;;-1.29;100.00;99186.02;110353;1268;23132;-69
2023/01/30 06:52:28;;;;;;;12.20;8.80;;;;;;;-1.25;100.00;99187.56;110386;1270;22241;-69
2023/01/30 06:54:57;;;;;;;11.10;7.60;;;;;;;-1.25;100.00;99185.45;110385;1274;22755;-69
2023/01/30 06:57:26;;;;;;;14.40;8.90;;;;;;;-1.30;100.00;99182.94;110407;1275;22696;-69
2023/01/30 06:59:54;;;;;;;10.50;8.10;;;;;;;-1.29;100.00;99185.48;110242;1271;23004;-69
2023/01/30 07:02:22;;;;;;;11.30;8.10;;;;;;;-1.24;100.00;99183.54;110389;1267;22361;-67
2023/01/30 07:04:50;;;;;;;11.80;8.10;;;;;;;-1.22;100.00;99185.92;110429;1273;22303;-68
2023/01/30 07:07:18;;;;;;;11.00;8.20;;;;;;;-1.24;100.00;99183.50;109556;1272;23324;-67
2023/01/30 07:09:47;;;;;;;13.50;8.50;;;;;;;-1.25;100.00;99182.86;107847;1273;23314;-69
2023/01/30 07:12:35;;;;;;;13.40;8.40;;;;;;;-1.22;100.00;99176.52;107537;1275;22573;-69
2023/01/30 07:15:06;;;;;;;12.30;9.10;;;;;;;-1.22;100.00;99174.75;107640;1275;26507;-69
2023/01/30 07:17:36;;;;;;;15.80;9.90;;;;;;;-1.28;100.00;99173.16;107707;1272;22542;-69
2023/01/30 07:20:05;;;;;;;16.70;10.80;;;;;;;-1.32;100.00;99173.59;107594;1273;22656;-69
2023/01/30 07:22:34;;;;;;;18.50;11.60;;;;;;;-1.27;100.00;99172.49;110392;1275;22243;-68
2023/01/30 07:25:03;;;;;;;12.70;8.50;;;;;;;-1.20;100.00;99171.80;110295;1273;22430;-68
2023/01/30 07:27:31;;;;;;;12.30;8.00;;;;;;;-1.22;100.00;99168.63;110383;1275;22489;-69
2023/01/30 07:30:00;;;;;;;15.70;10.90;;;;;;;-1.25;100.00;99169.04;110381;1275;22206;-68
2023/01/30 07:32:28;;;;;;;20.50;13.00;;;;;;;-1.19;100.00;99161.27;110394;1267;23200;-68
2023/01/30 07:34:57;;;;;;;19.30;12.20;;;;;;;-1.09;100.00;99153.17;110374;1275;22284;-69
2023/01/30 07:37:25;;;;;;;13.20;9.70;;;;;;;-1.09;100.00;99149.34;110430;1270;22468;-68
2023/01/30 07:39:53;;;;;;;14.20;8.70;;;;;;;-1.09;100.00;99148.69;110409;1275;23014;-69
2023/01/30 12:10:30;;;;;;;17.80;11.20;;;;;;;-1.40;100.00;98705.69;103706;1309;544802;-64
2023/01/30 12:13:00;;;;;;;15.40;10.30;;;;;;;-1.21;100.00;98702.59;109540;1289;22480;-65
2023/01/30 12:15:30;;;;;;;17.70;10.40;;;;;;;-1.03;100.00;98702.71;109505;1289;22230;-65
2023/01/30 12:18:16;;;;;;;13.60;10.10;;;;;;;-0.89;100.00;98688.09;109042;1289;22540;-64
2023/01/30 12:21:16;;;;;;;16.10;9.90;;;;;;;-0.79;100.00;98688.60;105885;1289;23240;-64
2023/01/30 12:24:10;;;;;;;15.80;10.30;;;;;;;-0.73;100.00;98676.68;105726;1287;360386;-64
2023/01/30 12:27:03;;;;;;;17.10;9.70;;;;;;;-0.60;100.00;98672.19;106029;1287;25550;-64
2023/01/30 12:29:53;;;;;;;14.00;9.90;;;;;;;-0.53;100.00;98660.79;106771;1287;26554;-65
2023/01/30 12:32:24;;;;;;;16.00;10.10;;;;;;;-0.51;100.00;98662.77;105824;1287;27051;-64
2023/01/30 12:34:53;;;;;;;14.50;10.10;;;;;;;-0.49;100.00;98659.83;105868;1287;23986;-65
2023/01/30 12:37:22;;;;;;;16.10;9.80;;;;;;;-0.40;100.00;98653.25;106572;1279;27776;-65
2023/01/30 12:39:54;;;;;;;13.00;9.90;;;;;;;-0.32;100.00;98651.61;105885;1284;27594;-65
2023/01/30 12:42:41;;;;;;;12.80;9.40;;;;;;;-0.30;100.00;98648.20;105793;1285;26173;-65
2023/01/30 12:45:22;;;;;;;13.20;9.50;;;;;;;-0.32;100.00;98650.38;105767;1286;22547;-64
2023/01/30 12:48:03;;;;;;;15.10;9.80;;;;;;;-0.28;100.00;98650.32;105936;1286;24417;-64
2023/01/30 12:50:49;;;;;;;12.50;9.10;;;;;;;-0.21;100.00;98650.33;105864;1284;22581;-64
2023/01/30 12:53:31;;;;;;;24.20;14.80;;;;;;;-0.23;100.00;98639.58;109618;1287;23133;-64
2023/01/30 12:56:19;;;;;;;27.40;16.50;;;;;;;-0.25;100.00;98638.63;106402;1287;22578;-64
2023/01/30 12:59:17;;;;;;;23.30;14.20;;;;;;;-0.20;100.00;98634.39;109633;1287;22906;-64
2023/01/30 13:02:23;;;;;;;42.40;20.30;;;;;;;-0.15;100.00;98635.52;109548;1286;22916;-65
2023/01/30 13:05:20;;;;;;;20.20;13.60;;;;;;;-0.14;100.00;98631.66;109626;1287;22518;-65
2023/01/30 13:07:51;;;;;;;15.00;10.90;;;;;;;-0.14;100.00;98625.20;109475;1287;22457;-65
2023/01/30 13:10:28;;;;;;;15.60;10.00;;;;;;;-0.06;100.00;98619.64;109649;1287;22226;-65
2023/01/30 13:13:14;;;;;;;;;;;;;;;-0.01;100.00;98613.34;109666;1287;22505;-65
2023/01/30 13:15:47;;;;;;;16.00;10.60;;;;;;;-0.05;100.00;98611.15;109638;1285;22517;-65
2023/01/30 13:18:46;;;;;;;14.80;10.50;;;;;;;-0.06;100.00;98613.75;109647;1287;22298;-64
2023/01/30 13:21:18;;;;;;;15.90;9.40;;;;;;;0.03;100.00;98613.05;109669;1287;22276;-64
2023/01/30 13:23:58;;;;;;;13.80;9.10;;;;;;;0.04;100.00;98606.80;109540;1282;22465;-65
2023/01/30 13:26:33;;;;;;;18.10;11.90;;;;;;;0.03;100.00;98603.42;109678;1287;22258;-64
2023/01/30 13:29:14;;;;;;;14.00;9.90;;;;;;;0.00;100.00;98595.72;109516;1287;22293;-64
2023/01/30 13:31:53;;;;;;;14.30;10.30;;;;;;;0.05;100.00;98593.45;109608;1287;23185;-64
2023/01/30 13:34:27;;;;;;;16.20;10.80;;;;;;;0.05;100.00;98587.36;109570;1286;22389;-65
2023/01/30 13:37:00;;;;;;;13.30;10.30;;;;;;;0.01;100.00;98581.42;109617;1287;22221;-64
2023/01/30 13:39:46;;;;;;;14.30;9.40;;;;;;;-0.02;100.00;98582.45;109604;1287;22678;-64
2023/01/30 13:42:41;;;;;;;14.80;9.40;;;;;;;0.05;100.00;98577.52;109654;1287;22232;-64
2023/01/30 13:45:17;;;;;;;13.00;9.70;;;;;;;0.04;100.00;98574.81;109619;1287;22216;-64
2023/01/30 13:47:55;;;;;;;13.80;9.90;;;;;;;0.00;100.00;98574.14;109505;1287;21999;-64
2023/01/30 13:50:49;;;;;;;11.90;8.90;;;;;;;0.04;100.00;98574.98;109675;1287;22298;-64
2023/01/30 13:53:21;;;;;;;13.30;9.60;;;;;;;0.07;100.00;98573.13;109662;1287;22207;-64
2023/01/30 13:56:01;;;;;;;14.10;9.10;;;;;;;0.02;100.00;98569.96;109568;1288;22408;-64
2023/01/30 13:58:43;;;;;;;14.90;9.30;;;;;;;-0.01;100.00;98573.75;109653;1288;22372;-64
2023/01/30 14:01:12;;;;;;;16.00;9.10;;;;;;;0.04;100.00;98563.04;109550;1287;22228;-64
2023/01/30 14:03:41;;;;;;;13.40;9.40;;;;;;;0.04;100.00;98566.35;109645;1286;22299;-64
2023/01/30 14:06:29;;;;;;;12.60;9.00;;;;;;;0.01;100.00;98563.13;109679;1287;22218;-64
2023/01/30 14:08:58;;;;;;;11.90;8.40;;;;;;;0.04;100.00;98567.42;109664;1287;23078;-64
2023/01/30 14:11:45;;;;;;;15.90;8.80;;;;;;;0.07;100.00;98565.51;109641;1287;22407;-64
2023/01/30 14:14:17;;;;;;;13.30;9.20;;;;;;;0.05;100.00;98566.27;109569;1287;23141;-65
2023/01/30 14:16:49;;;;;;;13.50;8.90;;;;;;;0.01;100.00;98560.45;109652;1287;22961;-64
2023/01/30 14:19:20;;;;;;;13.90;9.50;;;;;;;0.00;100.00;98555.04;109570;1287;23048;-64
2023/01/30 14:21:55;;;;;;;14.50;9.00;;;;;;;0.05;100.00;98554.60;109622;1287;22573;-64
2023/01/30 14:24:24;;;;;;;10.80;8.10;;;;;;;0.11;100.00;98553.45;109637;1287;22822;-64
2023/01/30 14:26:55;;;;;;;12.70;8.50;;;;;;;0.07;100.00;98548.19;109649;1287;22497;-64
2023/01/30 14:29:44;;;;;;;12.10;8.40;;;;;;;0.02;100.00;98549.71;109669;1287;22509;-64
2023/01/30 14:32:15;;;;;;;13.60;8.50;;;;;;;-0.01;100.00;98550.91;109619;1283;22906;-64
2023/01/30 14:35:01;;;;;;;12.50;8.90;;;;;;;0.03;100.00;98547.27;109670;1287;22274;-64
2023/01/30 14:37:38;;;;;;;13.40;8.60;;;;;;;-0.01;100.00;98545.55;109655;1287;22234;-64
2023/01/30 14:40:21;;;;;;;12.60;8.30;;;;;;;-0.06;100.00;98541.15;109605;1287;22267;-64
2023/01/30 14:43:15;;;;;;;12.70;8.60;;;;;;;-0.08;100.00;98537.03;105769;1287;26204;-64
2023/01/30 14:45:57;;;;;;;13.10;7.90;;;;;;;-0.06;100.00;98533.70;105876;1287;25339;-63
2023/01/30 14:48:30;;;;;;;13.80;9.00;;;;;;;-0.12;100.00;98532.17;105989;1287;22938;-63
2023/01/30 14:51:35;;;;;;;14.30;8.50;;;;;;;-0.18;100.00;98524.91;109626;1287;22240;-64
2023/01/30 14:54:15;;;;;;;18.90;10.80;;;;;;;-0.17;100.00;98521.46;109519;1280;22221;-64
2023/01/30 14:57:00;;;;;;;12.90;8.80;;;;;;;-0.19;100.00;98519.11;109629;1287;22220;-65
2023/01/30 14:59:29;;;;;;;15.40;9.50;;;;;;;-0.24;100.00;98516.73;109649;1287;23005;-64
2023/01/30 15:01:59;;;;;;;14.90;9.60;;;;;;;-0.29;100.00;98524.11;109610;1281;22419;-64
2023/01/30 15:04:31;;;;;;;13.80;8.50;;;;;;;-0.32;100.00;98523.18;109634;1287;22255;-64
2023/01/30 15:07:00;;;;;;;13.50;8.50;;;;;;;-0.27;100.00;98524.32;109642;1287;22374;-64
2023/01/30 15:09:29;;;;;;;16.40;9.80;;;;;;;-0.23;100.00;98522.23;109646;1286;23365;-64
2023/01/30 15:12:33;;;;;;;17.70;10.00;;;;;;;-0.23;100.00;98525.16;109555;1287;22385;-64
2023/01/30 15:15:27;;;;;;;13.50;9.70;;;;;;;-0.27;100.00;98524.52;109639;1287;22345;-64
2023/01/30 15:17:55;;;;;;;13.40;8.90;;;;;;;-0.25;100.00;98524.11;109662;1287;22227;-64
2023/01/30 15:20:54;;;;;;;13.50;9.30;;;;;;;-0.20;100.00;98521.55;109760;1285;22426;-64
2023/01/30 15:23:44;;;;;;;15.70;9.80;;;;;;;-0.21;100.00;98522.22;109611;1285;22128;-64
2023/01/30 15:26:34;;;;;;;13.90;9.40;;;;;;;-0.24;100.00;98523.98;106089;1285;25393;-63
2023/01/30 15:29:27;;;;;;;14.00;8.80;;;;;;;-0.25;100.00;98525.43;106335;1279;24229;-65
2023/01/30 15:32:00;;;;;;;18.00;10.50;;;;;;;-0.22;100.00;98527.16;107051;1283;25459;-63
2023/01/30 15:34:30;;;;;;;14.20;8.70;;;;;;;-0.25;100.00;98520.84;106456;1285;22555;-63
2023/01/30 15:36:59;;;;;;;14.10;9.40;;;;;;;-0.28;100.00;98519.14;107079;1285;25233;-64
2023/01/30 15:39:27;;;;;;;14.20;8.60;;;;;;;-0.24;100.00;98524.65;106096;1285;24030;-63
2023/01/30 15:42:01;;;;;;;13.30;9.30;;;;;;;-0.24;100.00;98524.29;106171;1285;22536;-64
2023/01/30 20:01:45;;;;;;;29.60;17.60;;;;;;;-2.49;100.00;98439.86;104524;1305;545497;-66
2023/01/30 20:04:13;;;;;;;28.90;16.50;;;;;;;-2.36;100.00;98445.91;106945;1282;22997;-65
2023/01/30 20:06:47;;;;;;;31.80;17.70;;;;;;;-2.19;100.00;98440.77;107038;1288;23359;-64
2023/01/30 20:09:18;;;;;;;23.50;15.00;;;;;;;-2.05;100.00;98445.58;106969;1286;26544;-65
2023/01/30 20:11:46;;;;;;;20.40;13.00;;;;;;;-1.91;100.00;98446.02;106899;1288;25455;-66
2023/01/30 20:14:15;;;;;;;19.40;12.00;;;;;;;-1.80;100.00;98445.70;106636;1286;134441;-66
2023/01/30 20:16:44;;;;;;;17.90;11.80;;;;;;;-1.69;100.00;98448.45;107017;1263;22945;-65
2023/01/30 20:19:14;;;;;;;19.60;12.80;;;;;;;-1.65;100.00;98447.50;107059;1286;23725;-66
2023/01/30 20:21:42;;;;;;;19.10;12.10;;;;;;;-1.61;100.00;98438.86;106815;1286;23126;-65
2023/01/30 20:24:14;;;;;;;18.60;13.00;;;;;;;-1.51;100.00;98433.48;106945;1285;25359;-66
2023/01/30 20:26:44;;;;;;;19.10;12.40;;;;;;;-1.44;100.00;98433.55;109606;1285;22962;-66
2023/01/30 20:29:16;;;;;;;20.40;13.40;;;;;;;-1.45;100.00;98435.29;109717;1285;22517;-66
2023/01/30 20:31:45;;;;;;;20.80;12.70;;;;;;;-1.45;100.00;98436.31;109716;1285;22259;-66
2023/01/30 20:34:14;;;;;;;21.30;13.20;;;;;;;-1.37;100.00;98437.80;109733;1281;23028;-67
2023/01/30 20:36:42;;;;;;;20.00;13.30;;;;;;;-1.32;100.00;98440.34;109644;1286;22279;-66
2023/01/30 20:39:11;;;;;;;21.20;13.80;;;;;;;-1.33;100.00;98443.78;109730;1283;22213;-67
2023/01/30 20:41:39;;;;;;;21.00;13.20;;;;;;;-1.28;100.00;98449.09;109720;1286;22470;-67
2023/01/30 20:44:10;;;;;;;21.30;13.70;;;;;;;-1.23;100.00;98442.23;109736;1283;23335;-66
2023/01/30 20:46:42;;;;;;;22.10;14.30;;;;;;;-1.18;100.00;98440.66;109723;1286;23289;-67
2023/01/30 20:49:12;;;;;;;21.40;14.00;;;;;;;-1.21;100.00;98437.13;109705;1286;23112;-67
2023/01/30 20:51:40;;;;;;;21.80;13.70;;;;;;;-1.17;100.00;98441.05;109934;1282;22466;-66
2023/01/30 20:54:09;;;;;;;19.70;13.70;;;;;;;-1.16;100.00;98442.54;109883;1282;22227;-67
2023/01/30 20:56:41;;;;;;;21.00;14.30;;;;;;;-1.16;100.00;98442.10;109882;1278;22269;-67
2023/01/30 20:59:15;;;;;;;22.50;14.40;;;;;;;-1.20;100.00;98445.36;109893;1282;22203;-67
2023/01/30 21:01:43;;;;;;;24.10;15.50;;;;;;;-1.17;100.00;98445.65;110395;1268;22777;-66
2023/01/30 21:04:13;;;;;;;21.40;14.20;;;;;;;-1.13;100.00;98447.35;110391;1274;22509;-67
2023/01/30 21:06:42;;;;;;;22.00;14.40;;;;;;;-1.13;100.00;98448.05;110443;1274;22189;-66
2023/01/30 21:09:21;;;;;;;22.50;14.90;;;;;;;-1.16;100.00;98447.06;110334;1274;22960;-67
2023/01/30 21:11:51;;;;;;;20.60;13.70;;;;;;;-1.13;100.00;98445.42;108594;1274;26293;-66
2023/01/30 21:14:19;;;;;;;22.70;14.10;;;;;;;-1.11;100.00;98442.98;107687;1274;25341;-65
2023/01/30 21:16:47;;;;;;;20.00;13.50;;;;;;;-1.12;100.00;98441.05;107560;1275;24375;-66
2023/01/30 21:19:16;;;;;;;23.00;14.30;;;;;;;-1.14;100.00;98436.27;107677;1268;25408;-66
2023/01/30 21:21:50;;;;;;;22.10;14.70;;;;;;;-1.18;100.00;98432.52;110364;1268;23140;-67
2023/01/30 21:24:27;;;;;;;21.90;14.80;;;;;;;-1.20;100.00;98432.23;110393;1267;22453;-67
2023/01/30 21:26:56;;;;;;;22.10;14.10;;;;;;;-1.18;100.00;98432.19;110405;1274;22201;-66
2023/01/30 21:29:24;;;;;;;21.20;14.10;;;;;;;-1.15;100.00;98435.02;110339;1270;22528;-67
2023/01/30 21:31:54;;;;;;;22.50;14.90;;;;;;;-1.17;100.00;98430.86;110407;1275;22230;-67
2023/01/30 21:34:22;;;;;;;23.80;16.00;;;;;;;-1.19;100.00;98424.52;110407;1270;23272;-67
2023/01/30 21:45:12;;;;;;;27.00;16.40;;;;;;;-1.15;100.00;98424.91;110404;1272;23423;-66
2023/01/30 21:47:41;;;;;;;22.80;15.80;;;;;;;-1.15;100.00;98421.66;110408;1275;22277;-66
2023/01/30 21:50:09;;;;;;;23.60;16.10;;;;;;;-1.11;100.00;98423.91;110411;1275;22924;-66
2023/01/30 21:52:38;;;;;;;22.70;15.40;;;;;;;-1.06;100.00;98425.55;108016;1275;22650;-65
2023/01/30 21:55:07;;;;;;;28.10;19.00;;;;;;;-1.08;100.00;98424.69;107614;1274;23118;-66
2023/01/30 21:57:35;;;;;;;29.70;17.50;;;;;;;-1.13;100.00;98424.54;107721;1275;22557;-66
2023/01/30 22:00:05;;;;;;;28.40;17.20;;;;;;;-1.13;100.00;98422.38;107646;1275;24216;-66
2023/01/30 22:02:33;;;;;;;27.70;17.60;;;;;;;-1.09;100.00;98420.17;110383;1275;23428;-67
2023/01/30 22:05:01;;;;;;;35.20;20.10;;;;;;;-1.10;100.00;98421.38;110375;1267;22415;-67
2023/01/30 22:07:30;;;;;;;35.40;19.80;;;;;;;-1.11;100.00;98420.38;110408;1275;22188;-67
2023/01/30 22:10:00;;;;;;;29.90;18.20;;;;;;;-1.06;100.00;98413.56;110445;1275;22856;-67
2023/01/30 22:12:30;;;;;;;24.80;16.50;;;;;;;-1.05;100.00;98417.60;110380;1275;23036;-67
2023/01/30 22:15:00;;;;;;;28.20;18.70;;;;;;;-1.03;100.00;98420.48;110418;1275;22335;-67
2023/01/30 22:17:28;;;;;;;31.00;19.80;;;;;;;-1.03;100.00;98422.51;110387;1275;22338;-67
2023/01/30 22:19:56;;;;;;;33.10;21.20;;;;;;;-1.04;100.00;98418.95;110374;1271;22247;-66
2023/01/30 22:22:25;;;;;;;28.30;18.00;;;;;;;-0.99;100.00;98419.02;110430;1275;23058;-68
2023/01/30 22:24:53;;;;;;;28.40;19.00;;;;;;;-0.92;100.00;98423.08;110316;1275;22251;-66
2023/01/30 22:27:22;;;;;;;26.00;17.10;;;;;;;-0.91;100.00;98419.98;110385;1272;22391;-67
2023/01/30 22:29:50;;;;;;;27.60;17.50;;;;;;;-0.94;100.00;98420.19;110433;1275;22329;-67
2023/01/30 22:32:22;;;;;;;24.10;16.40;;;;;;;-0.93;100.00;98416.17;110407;1268;22311;-67
2023/01/30 22:34:51;;;;;;;28.30;17.80;;;;;;;-0.91;100.00;98412.70;110420;1270;22270;-67
2023/01/30 22:37:19;;;;;;;27.00;17.10;;;;;;;-0.91;100.00;98415.66;110386;1269;22228;-66